sensor_id;sensor_type;location;lat;lon;timestamp;pressure;altitude;pressure_sealevel;temperature;humidity
56681;BME280;42558;52.388;13.390;2023-01-27T00:01:08;101723.02;;;-1.02;100.00
56681;BME280;42558;52.388;13.390;2023-01-27T00:03:38;101722.53;;;-1.04;100.00
56681;BME280;42558;52.388;13.390;2023-01-27T00:06:08;101721.23;;;-1.03;100.00
56681;BME280;42558;52.388;13.390;2023-01-27T00:08:40;101722.59;;;-0.99;100.00
56681;BME280;42558;52.388;13.390;2023-01-27T00:11:10;101717.57;;;-0.99;100.00
56681;BME280;42558;52.388;13.390;2023-01-27T00:13:58;101716.41;;;-1.00;100.00
56681;BME280;42558;52.388;13.390;2023-01-27T00:16:28;101713.88;;;-0.98;100.00
56681;BME280;42558;52.388;13.390;2023-01-27T00:18:58;101714.36;;;-0.98;100.00
56681;BME280;42558;52.388;13.390;2023-01-27T00:21:26;101715.77;;;-1.00;100.00
56681;BME280;42558;52.388;13.390;2023-01-27T00:24:15;101714.30;;;-0.99;100.00
56681;BME280;42558;52.388;13.390;2023-01-27T00:27:06;101716.82;;;-0.95;100.00
56681;BME280;42558;52.388;13.390;2023-01-27T00:29:38;101715.52;;;-0.92;100.00
56681;BME280;42558;52.388;13.390;2023-01-27T00:32:08;101711.62;;;-0.88;100.00
56681;BME280;42558;52.388;13.390;2023-01-27T00:34:57;101712.61;;;-0.92;100.00
56681;BME280;42558;52.388;13.390;2023-01-27T00:37:27;101710.73;;;-0.96;100.00
56681;BME280;42558;52.388;13.390;2023-01-27T00:39:57;101713.66;;;-0.94;100.00
56681;BME280;42558;52.388;13.390;2023-01-27T00:42:26;101714.30;;;-0.94;100.00
56681;BME280;42558;52.388;13.390;2023-01-27T00:44:56;101716.58;;;-0.98;100.00
56681;BME280;42558;52.388;13.390;2023-01-27T00:47:47;101717.89;;;-0.99;100.00
56681;BME280;42558;52.388;13.390;2023-01-27T00:50:19;101716.95;;;-1.00;100.00
56681;BME280;42558;52.388;13.390;2023-01-27T00:52:49;101722.34;;;-0.98;100.00
56681;BME280;42558;52.388;13.390;2023-01-27T00:55:17;101728.82;;;-0.92;100.00
56681;BME280;42558;52.388;13.390;2023-01-27T00:57:45;101723.66;;;-0.94;100.00
56681;BME280;42558;52.388;13.390;2023-01-27T01:00:14;101723.68;;;-0.95;100.00
56681;BME280;42558;52.388;13.390;2023-01-27T01:02:42;101720.77;;;-1.00;100.00
56681;BME280;42558;52.388;13.390;2023-01-27T01:05:11;101724.96;;;-1.04;100.00
56681;BME280;42558;52.388;13.390;2023-01-27T01:07:39;101724.13;;;-1.03;100.00
56681;BME280;42558;52.388;13.390;2023-01-27T01:10:09;101725.59;;;-1.00;100.00
56681;BME280;42558;52.388;13.390;2023-01-27T01:12:39;101729.27;;;-0.99;100.00
56681;BME280;42558;52.388;13.390;2023-01-27T01:15:08;101726.48;;;-0.97;100.00
56681;BME280;42558;52.388;13.390;2023-01-27T01:17:36;101725.44;;;-0.95;100.00
56681;BME280;42558;52.388;13.390;2023-01-27T01:20:05;101729.40;;;-0.95;100.00
56681;BME280;42558;52.388;13.390;2023-01-27T01:22:36;101730.60;;;-0.93;100.00
56681;BME280;42558;52.388;13.390;2023-01-27T01:25:06;101729.82;;;-0.95;100.00
56681;BME280;42558;52.388;13.390;2023-01-27T01:27:36;101734.48;;;-1.01;100.00
56681;BME280;42558;52.388;13.390;2023-01-27T01:30:08;101739.13;;;-0.99;100.00
56681;BME280;42558;52.388;13.390;2023-01-27T01:32:37;101740.64;;;-1.00;100.00
56681;BME280;42558;52.388;13.390;2023-01-27T01:35:08;101739.25;;;-0.97;100.00
56681;BME280;42558;52.388;13.390;2023-01-27T01:37:37;101732.77;;;-0.94;100.00
56681;BME280;42558;52.388;13.390;2023-01-27T01:40:10;101737.08;;;-0.94;100.00
56681;BME280;42558;52.388;13.390;2023-01-27T01:43:00;101736.31;;;-0.95;100.00
56681;BME280;42558;52.388;13.390;2023-01-27T01:48:05;101736.41;;;-0.96;100.00
56681;BME280;42558;52.388;13.390;2023-01-27T01:50:39;101739.69;;;-0.96;100.00
56681;BME280;42558;52.388;13.390;2023-01-27T01:53:11;101742.53;;;-0.98;100.00
56681;BME280;42558;52.388;13.390;2023-01-27T01:55:41;101740.73;;;-0.96;100.00
56681;BME280;42558;52.388;13.390;2023-01-27T01:58:12;101740.98;;;-0.95;100.00
56681;BME280;42558;52.388;13.390;2023-01-27T02:00:42;101742.83;;;-0.96;100.00
56681;BME280;42558;52.388;13.390;2023-01-27T02:03:12;101746.76;;;-0.99;100.00
56681;BME280;42558;52.388;13.390;2023-01-27T02:05:43;101751.55;;;-0.97;100.00
56681;BME280;42558;52.388;13.390;2023-01-27T02:08:26;101752.67;;;-0.95;100.00
56681;BME280;42558;52.388;13.390;2023-01-27T02:10:58;101750.54;;;-0.99;100.00
56681;BME280;42558;52.388;13.390;2023-01-27T02:13:27;101750.62;;;-1.02;100.00
56681;BME280;42558;52.388;13.390;2023-01-27T02:15:57;101752.05;;;-0.99;100.00
56681;BME280;42558;52.388;13.390;2023-01-27T02:18:28;101751.06;;;-1.00;100.00
56681;BME280;42558;52.388;13.390;2023-01-27T02:20:56;101750.91;;;-0.99;100.00
56681;BME280;42558;52.388;13.390;2023-01-27T02:26:29;101747.64;;;-0.96;100.00
56681;BME280;42558;52.388;13.390;2023-01-27T02:29:08;101743.98;;;-0.96;100.00
56681;BME280;42558;52.388;13.390;2023-01-27T02:31:38;101745.58;;;-0.98;100.00
56681;BME280;42558;52.388;13.390;2023-01-27T02:34:16;101746.12;;;-0.98;100.00
56681;BME280;42558;52.388;13.390;2023-01-27T02:36:57;101744.26;;;-0.95;100.00
56681;BME280;42558;52.388;13.390;2023-01-27T02:39:38;101749.27;;;-1.00;100.00
56681;BME280;42558;52.388;13.390;2023-01-27T02:42:14;101745.39;;;-1.01;100.00
56681;BME280;42558;52.388;13.390;2023-01-27T02:44:45;101746.42;;;-0.96;100.00
56681;BME280;42558;52.388;13.390;2023-01-27T02:47:15;101748.16;;;-0.98;100.00
56681;BME280;42558;52.388;13.390;2023-01-27T02:49:45;101750.55;;;-0.99;100.00
56681;BME280;42558;52.388;13.390;2023-01-27T02:52:15;101755.04;;;-0.96;100.00
56681;BME280;42558;52.388;13.390;2023-01-27T02:54:45;101756.67;;;-0.98;100.00
56681;BME280;42558;52.388;13.390;2023-01-27T02:57:15;101763.84;;;-0.99;100.00
56681;BME280;42558;52.388;13.390;2023-01-27T02:59:44;101764.60;;;-0.93;100.00
56681;BME280;42558;52.388;13.390;2023-01-27T03:02:14;101766.00;;;-0.91;100.00
56681;BME280;42558;52.388;13.390;2023-01-27T03:04:51;101768.41;;;-0.91;100.00
56681;BME280;42558;52.388;13.390;2023-01-27T03:07:21;101766.70;;;-0.93;100.00
56681;BME280;42558;52.388;13.390;2023-01-27T03:09:51;101771.96;;;-0.90;100.00
56681;BME280;42558;52.388;13.390;2023-01-27T03:12:21;101770.70;;;-0.86;100.00
56681;BME280;42558;52.388;13.390;2023-01-27T03:14:51;101771.24;;;-0.90;100.00
56681;BME280;42558;52.388;13.390;2023-01-27T03:17:40;101767.89;;;-0.91;100.00
56681;BME280;42558;52.388;13.390;2023-01-27T03:20:30;101769.14;;;-0.88;100.00
56681;BME280;42558;52.388;13.390;2023-01-27T03:22:59;101770.78;;;-0.85;100.00
56681;BME280;42558;52.388;13.390;2023-01-27T03:25:29;101760.73;;;-0.85;100.00
56681;BME280;42558;52.388;13.390;2023-01-27T03:28:00;101757.12;;;-0.87;100.00
56681;BME280;42558;52.388;13.390;2023-01-27T03:30:30;101759.45;;;-0.88;100.00
56681;BME280;42558;52.388;13.390;2023-01-27T03:32:59;101761.73;;;-0.90;100.00
56681;BME280;42558;52.388;13.390;2023-01-27T03:35:35;101766.90;;;-0.90;100.00
56681;BME280;42558;52.388;13.390;2023-01-27T03:38:16;101764.58;;;-0.89;100.00
56681;BME280;42558;52.388;13.390;2023-01-27T03:41:05;101766.55;;;-0.86;100.00
56681;BME280;42558;52.388;13.390;2023-01-27T03:43:54;101766.30;;;-0.87;100.00
56681;BME280;42558;52.388;13.390;2023-01-27T03:46:42;101767.86;;;-0.87;100.00
56681;BME280;42558;52.388;13.390;2023-01-27T03:49:12;101768.78;;;-0.84;100.00
56681;BME280;42558;52.388;13.390;2023-01-27T03:51:40;101765.56;;;-0.83;100.00
56681;BME280;42558;52.388;13.390;2023-01-27T03:54:09;101768.55;;;-0.82;100.00
56681;BME280;42558;52.388;13.390;2023-01-27T03:56:37;101766.98;;;-0.80;100.00
56681;BME280;42558;52.388;13.390;2023-01-27T03:59:05;101772.29;;;-0.78;100.00
56681;BME280;42558;52.388;13.390;2023-01-27T04:01:34;101770.84;;;-0.79;100.00
56681;BME280;42558;52.388;13.390;2023-01-27T04:04:02;101767.24;;;-0.84;100.00
56681;BME280;42558;52.388;13.390;2023-01-27T04:06:51;101768.50;;;-0.80;100.00
56681;BME280;42558;52.388;13.390;2023-01-27T04:09:33;101772.48;;;-0.80;100.00
56681;BME280;42558;52.388;13.390;2023-01-27T04:12:06;101772.23;;;-0.79;100.00
56681;BME280;42558;52.388;13.390;2023-01-27T04:14:40;101770.08;;;-0.75;100.00
56681;BME280;42558;52.388;13.390;2023-01-27T04:17:16;101771.20;;;-0.72;100.00
56681;BME280;42558;52.388;13.390;2023-01-27T04:19:47;101769.17;;;-0.71;100.00
56681;BME280;42558;52.388;13.390;2023-01-27T04:22:17;101770.74;;;-0.73;100.00
56681;BME280;42558;52.388;13.390;2023-01-27T04:24:46;101776.00;;;-0.70;100.00
56681;BME280;42558;52.388;13.390;2023-01-27T04:27:16;101771.98;;;-0.68;100.00
56681;BME280;42558;52.388;13.390;2023-01-27T04:29:48;101774.64;;;-0.65;100.00
56681;BME280;42558;52.388;13.390;2023-01-27T04:32:18;101778.05;;;-0.64;100.00
56681;BME280;42558;52.388;13.390;2023-01-27T04:34:49;101782.88;;;-0.61;100.00
56681;BME280;42558;52.388;13.390;2023-01-27T04:37:19;101785.60;;;-0.60;100.00
56681;BME280;42558;52.388;13.390;2023-01-27T04:39:48;101788.64;;;-0.63;100.00
56681;BME280;42558;52.388;13.390;2023-01-27T04:42:18;101788.11;;;-0.63;100.00
56681;BME280;42558;52.388;13.390;2023-01-27T04:44:48;101786.63;;;-0.66;100.00
56681;BME280;42558;52.388;13.390;2023-01-27T04:47:18;101785.63;;;-0.61;100.00
56681;BME280;42558;52.388;13.390;2023-01-27T04:49:48;101787.27;;;-0.62;100.00
56681;BME280;42558;52.388;13.390;2023-01-27T04:52:17;101792.67;;;-0.60;100.00
56681;BME280;42558;52.388;13.390;2023-01-27T04:54:44;101793.44;;;-0.59;100.00
56681;BME280;42558;52.388;13.390;2023-01-27T04:57:12;101793.23;;;-0.59;100.00
56681;BME280;42558;52.388;13.390;2023-01-27T04:59:41;101793.85;;;-0.58;100.00
56681;BME280;42558;52.388;13.390;2023-01-27T05:02:11;101795.40;;;-0.53;100.00
56681;BME280;42558;52.388;13.390;2023-01-27T05:04:41;101795.56;;;-0.53;100.00
56681;BME280;42558;52.388;13.390;2023-01-27T05:07:11;101795.59;;;-0.55;100.00
56681;BME280;42558;52.388;13.390;2023-01-27T05:09:40;101796.43;;;-0.56;100.00
56681;BME280;42558;52.388;13.390;2023-01-27T05:12:12;101797.76;;;-0.56;100.00
56681;BME280;42558;52.388;13.390;2023-01-27T05:14:45;101801.13;;;-0.53;100.00
56681;BME280;42558;52.388;13.390;2023-01-27T05:17:12;101800.58;;;-0.56;100.00
56681;BME280;42558;52.388;13.390;2023-01-27T05:19:42;101798.17;;;-0.53;100.00
56681;BME280;42558;52.388;13.390;2023-01-27T05:22:12;101803.92;;;-0.52;100.00
56681;BME280;42558;52.388;13.390;2023-01-27T05:24:41;101806.60;;;-0.53;100.00
56681;BME280;42558;52.388;13.390;2023-01-27T05:27:10;101812.62;;;-0.56;100.00
56681;BME280;42558;52.388;13.390;2023-01-27T05:29:39;101815.02;;;-0.59;100.00
56681;BME280;42558;52.388;13.390;2023-01-27T05:32:07;101814.48;;;-0.57;100.00
56681;BME280;42558;52.388;13.390;2023-01-27T05:34:35;101816.59;;;-0.54;100.00
56681;BME280;42558;52.388;13.390;2023-01-27T05:37:03;101816.09;;;-0.51;100.00
56681;BME280;42558;52.388;13.390;2023-01-27T05:39:32;101813.81;;;-0.52;100.00
56681;BME280;42558;52.388;13.390;2023-01-27T05:42:00;101820.08;;;-0.51;100.00
56681;BME280;42558;52.388;13.390;2023-01-27T05:44:29;101821.34;;;-0.53;100.00
56681;BME280;42558;52.388;13.390;2023-01-27T05:46:57;101824.80;;;-0.58;100.00
56681;BME280;42558;52.388;13.390;2023-01-27T05:49:26;101824.91;;;-0.60;100.00
56681;BME280;42558;52.388;13.390;2023-01-27T05:51:54;101830.30;;;-0.57;100.00
56681;BME280;42558;52.388;13.390;2023-01-27T05:54:22;101829.20;;;-0.56;100.00
56681;BME280;42558;52.388;13.390;2023-01-27T05:56:51;101827.34;;;-0.58;100.00
56681;BME280;42558;52.388;13.390;2023-01-27T05:59:19;101830.23;;;-0.54;100.00
56681;BME280;42558;52.388;13.390;2023-01-27T06:01:48;101827.01;;;-0.53;100.00
56681;BME280;42558;52.388;13.390;2023-01-27T06:04:16;101833.54;;;-0.53;100.00
56681;BME280;42558;52.388;13.390;2023-01-27T06:06:44;101831.48;;;-0.53;100.00
56681;BME280;42558;52.388;13.390;2023-01-27T06:09:13;101827.62;;;-0.50;100.00
56681;BME280;42558;52.388;13.390;2023-01-27T06:11:41;101827.54;;;-0.44;100.00
56681;BME280;42558;52.388;13.390;2023-01-27T06:14:10;101829.04;;;-0.40;100.00
56681;BME280;42558;52.388;13.390;2023-01-27T06:16:38;101831.19;;;-0.37;100.00
56681;BME280;42558;52.388;13.390;2023-01-27T06:19:07;101831.22;;;-0.39;100.00
56681;BME280;42558;52.388;13.390;2023-01-27T06:21:35;101828.95;;;-0.41;100.00
56681;BME280;42558;52.388;13.390;2023-01-27T06:24:04;101831.39;;;-0.43;100.00
56681;BME280;42558;52.388;13.390;2023-01-27T06:26:32;101832.20;;;-0.42;100.00
56681;BME280;42558;52.388;13.390;2023-01-27T06:29:00;101831.83;;;-0.42;100.00
56681;BME280;42558;52.388;13.390;2023-01-27T06:31:29;101837.63;;;-0.43;100.00
56681;BME280;42558;52.388;13.390;2023-01-27T06:33:57;101839.05;;;-0.42;100.00
56681;BME280;42558;52.388;13.390;2023-01-27T06:36:25;101839.52;;;-0.43;100.00
56681;BME280;42558;52.388;13.390;2023-01-27T06:38:54;101836.66;;;-0.40;100.00
56681;BME280;42558;52.388;13.390;2023-01-27T06:41:22;101840.21;;;-0.43;100.00
56681;BME280;42558;52.388;13.390;2023-01-27T06:43:51;101839.31;;;-0.41;100.00
56681;BME280;42558;52.388;13.390;2023-01-27T06:46:19;101838.95;;;-0.41;100.00
56681;BME280;42558;52.388;13.390;2023-01-27T06:48:48;101842.67;;;-0.42;100.00
56681;BME280;42558;52.388;13.390;2023-01-27T06:51:16;101840.38;;;-0.43;100.00
56681;BME280;42558;52.388;13.390;2023-01-27T06:53:44;101843.95;;;-0.41;100.00
56681;BME280;42558;52.388;13.390;2023-01-27T06:56:13;101847.28;;;-0.39;100.00
56681;BME280;42558;52.388;13.390;2023-01-27T06:58:44;101845.73;;;-0.39;100.00
56681;BME280;42558;52.388;13.390;2023-01-27T07:01:13;101847.58;;;-0.37;100.00
56681;BME280;42558;52.388;13.390;2023-01-27T07:03:41;101847.23;;;-0.35;100.00
56681;BME280;42558;52.388;13.390;2023-01-27T07:06:13;101853.95;;;-0.33;100.00
56681;BME280;42558;52.388;13.390;2023-01-27T07:08:43;101854.48;;;-0.30;100.00
56681;BME280;42558;52.388;13.390;2023-01-27T07:11:13;101857.83;;;-0.29;100.00
56681;BME280;42558;52.388;13.390;2023-01-27T07:13:43;101856.05;;;-0.28;100.00
56681;BME280;42558;52.388;13.390;2023-01-27T07:16:13;101854.66;;;-0.28;100.00
56681;BME280;42558;52.388;13.390;2023-01-27T07:18:43;101857.95;;;-0.23;100.00
56681;BME280;42558;52.388;13.390;2023-01-27T07:21:13;101858.67;;;-0.22;100.00
56681;BME280;42558;52.388;13.390;2023-01-27T07:23:43;101862.73;;;-0.28;100.00
56681;BME280;42558;52.388;13.390;2023-01-27T07:26:11;101857.31;;;-0.27;100.00
56681;BME280;42558;52.388;13.390;2023-01-27T07:28:55;101858.06;;;-0.21;100.00
56681;BME280;42558;52.388;13.390;2023-01-27T07:31:25;101868.71;;;-0.15;100.00
56681;BME280;42558;52.388;13.390;2023-01-27T07:33:55;101866.36;;;-0.07;100.00
56681;BME280;42558;52.388;13.390;2023-01-27T07:36:25;101868.65;;;-0.05;100.00
56681;BME280;42558;52.388;13.390;2023-01-27T07:38:55;101867.58;;;-0.00;100.00
56681;BME280;42558;52.388;13.390;2023-01-27T07:41:25;101871.77;;;0.05;100.00
56681;BME280;42558;52.388;13.390;2023-01-27T07:43:55;101872.59;;;0.07;100.00
56681;BME280;42558;52.388;13.390;2023-01-27T07:46:25;101875.83;;;0.11;100.00
56681;BME280;42558;52.388;13.390;2023-01-27T07:48:55;101881.61;;;0.14;100.00
56681;BME280;42558;52.388;13.390;2023-01-27T07:51:25;101883.35;;;0.19;100.00
56681;BME280;42558;52.388;13.390;2023-01-27T07:53:55;101885.41;;;0.23;100.00
56681;BME280;42558;52.388;13.390;2023-01-27T07:56:26;101885.16;;;0.27;100.00
56681;BME280;42558;52.388;13.390;2023-01-27T07:58:56;101884.63;;;0.32;100.00
56681;BME280;42558;52.388;13.390;2023-01-27T08:01:26;101890.44;;;0.33;100.00
56681;BME280;42558;52.388;13.390;2023-01-27T08:03:56;101891.48;;;0.34;100.00
56681;BME280;42558;52.388;13.390;2023-01-27T08:06:27;101895.16;;;0.34;100.00
56681;BME280;42558;52.388;13.390;2023-01-27T08:08:57;101890.73;;;0.38;100.00
56681;BME280;42558;52.388;13.390;2023-01-27T08:11:26;101890.87;;;0.40;100.00
56681;BME280;42558;52.388;13.390;2023-01-27T08:13:56;101890.69;;;0.41;100.00
56681;BME280;42558;52.388;13.390;2023-01-27T08:16:26;101887.89;;;0.46;100.00
56681;BME280;42558;52.388;13.390;2023-01-27T08:18:57;101891.38;;;0.48;100.00
56681;BME280;42558;52.388;13.390;2023-01-27T08:21:27;101893.96;;;0.49;100.00
56681;BME280;42558;52.388;13.390;2023-01-27T08:24:01;101892.86;;;0.50;100.00
56681;BME280;42558;52.388;13.390;2023-01-27T08:26:31;101891.72;;;0.51;100.00
56681;BME280;42558;52.388;13.390;2023-01-27T08:29:01;101894.64;;;0.53;100.00
56681;BME280;42558;52.388;13.390;2023-01-27T08:31:31;101896.89;;;0.58;100.00
56681;BME280;42558;52.388;13.390;2023-01-27T08:34:01;101898.59;;;0.60;100.00
56681;BME280;42558;52.388;13.390;2023-01-27T08:36:31;101899.98;;;0.65;100.00
56681;BME280;42558;52.388;13.390;2023-01-27T08:39:01;101904.42;;;0.66;100.00
56681;BME280;42558;52.388;13.390;2023-01-27T08:41:31;101907.00;;;0.71;100.00
56681;BME280;42558;52.388;13.390;2023-01-27T08:44:02;101907.66;;;0.73;100.00
56681;BME280;42558;52.388;13.390;2023-01-27T08:46:31;101908.94;;;0.76;100.00
56681;BME280;42558;52.388;13.390;2023-01-27T08:49:01;101914.44;;;0.78;100.00
56681;BME280;42558;52.388;13.390;2023-01-27T08:51:33;101916.94;;;0.82;100.00
56681;BME280;42558;52.388;13.390;2023-01-27T08:54:03;101912.77;;;0.87;100.00
56681;BME280;42558;52.388;13.390;2023-01-27T08:56:32;101916.73;;;0.91;100.00
56681;BME280;42558;52.388;13.390;2023-01-27T08:59:03;101916.70;;;0.93;100.00
56681;BME280;42558;52.388;13.390;2023-01-27T09:01:31;101920.94;;;0.97;100.00
56681;BME280;42558;52.388;13.390;2023-01-27T09:03:59;101922.60;;;0.98;100.00
56681;BME280;42558;52.388;13.390;2023-01-27T09:06:28;101924.31;;;0.98;100.00
56681;BME280;42558;52.388;13.390;2023-01-27T09:08:56;101922.78;;;1.03;100.00
56681;BME280;42558;52.388;13.390;2023-01-27T09:11:43;101921.55;;;1.10;100.00
56681;BME280;42558;52.388;13.390;2023-01-27T09:14:11;101920.77;;;1.09;100.00
56681;BME280;42558;52.388;13.390;2023-01-27T09:16:41;101926.13;;;1.16;100.00
56681;BME280;42558;52.388;13.390;2023-01-27T09:19:11;101922.84;;;1.19;100.00
56681;BME280;42558;52.388;13.390;2023-01-27T09:21:41;101923.80;;;1.22;100.00
56681;BME280;42558;52.388;13.390;2023-01-27T09:24:11;101928.19;;;1.28;100.00
56681;BME280;42558;52.388;13.390;2023-01-27T09:26:45;101930.98;;;1.28;100.00
56681;BME280;42558;52.388;13.390;2023-01-27T09:29:15;101930.52;;;1.32;100.00
56681;BME280;42558;52.388;13.390;2023-01-27T09:31:45;101937.76;;;1.42;100.00
56681;BME280;42558;52.388;13.390;2023-01-27T09:34:15;101935.61;;;1.43;100.00
56681;BME280;42558;52.388;13.390;2023-01-27T09:36:56;101940.73;;;1.45;100.00
56681;BME280;42558;52.388;13.390;2023-01-27T09:39:28;101944.16;;;1.49;100.00
56681;BME280;42558;52.388;13.390;2023-01-27T09:43:07;101943.58;;;1.45;100.00
56681;BME280;42558;52.388;13.390;2023-01-27T09:52:30;101953.05;;;1.47;100.00
56681;BME280;42558;52.388;13.390;2023-01-27T10:00:59;101951.04;;;1.58;100.00
56681;BME280;42558;52.388;13.390;2023-01-27T10:06:59;101944.67;;;1.64;100.00
56681;BME280;42558;52.388;13.390;2023-01-27T10:10:19;101943.46;;;1.67;100.00
56681;BME280;42558;52.388;13.390;2023-01-27T10:22:38;101952.55;;;1.85;100.00
56681;BME280;42558;52.388;13.390;2023-01-27T10:28:17;101950.29;;;1.93;100.00
56681;BME280;42558;52.388;13.390;2023-01-27T10:31:00;101958.08;;;1.87;100.00
56681;BME280;42558;52.388;13.390;2023-01-27T10:33:54;101956.58;;;1.91;100.00
56681;BME280;42558;52.388;13.390;2023-01-27T10:40:23;101960.36;;;2.03;100.00
56681;BME280;42558;52.388;13.390;2023-01-27T10:45:41;101956.38;;;2.14;100.00
56681;BME280;42558;52.388;13.390;2023-01-27T10:48:40;101954.13;;;2.11;100.00
56681;BME280;42558;52.388;13.390;2023-01-27T10:51:34;101952.21;;;2.09;100.00
56681;BME280;42558;52.388;13.390;2023-01-27T10:54:27;101957.64;;;2.09;100.00
56681;BME280;42558;52.388;13.390;2023-01-27T10:57:10;101958.54;;;2.17;100.00
56681;BME280;42558;52.388;13.390;2023-01-27T11:00:10;101957.69;;;2.15;100.00
56681;BME280;42558;52.388;13.390;2023-01-27T11:03:23;101959.64;;;2.11;100.00
56681;BME280;42558;52.388;13.390;2023-01-27T11:06:00;101956.09;;;2.15;100.00
56681;BME280;42558;52.388;13.390;2023-01-27T11:08:35;101959.11;;;2.18;100.00
56681;BME280;42558;52.388;13.390;2023-01-27T11:11:08;101958.50;;;2.25;100.00
56681;BME280;42558;52.388;13.390;2023-01-27T11:14:11;101955.84;;;2.29;100.00
56681;BME280;42558;52.388;13.390;2023-01-27T11:16:51;101960.34;;;2.29;100.00
56681;BME280;42558;52.388;13.390;2023-01-27T11:19:43;101959.48;;;2.26;100.00
56681;BME280;42558;52.388;13.390;2023-01-27T11:22:34;101962.23;;;2.31;100.00
56681;BME280;42558;52.388;13.390;2023-01-27T11:25:27;101956.56;;;2.29;100.00
56681;BME280;42558;52.388;13.390;2023-01-27T11:39:59;101957.12;;;2.33;100.00
56681;BME280;42558;52.388;13.390;2023-01-27T11:42:33;101954.63;;;2.34;100.00
56681;BME280;42558;52.388;13.390;2023-01-27T11:45:04;101952.30;;;2.41;100.00
56681;BME280;42558;52.388;13.390;2023-01-27T11:47:39;101953.50;;;2.52;100.00
56681;BME280;42558;52.388;13.390;2023-01-27T11:50:19;101952.91;;;2.54;100.00
56681;BME280;42558;52.388;13.390;2023-01-27T11:53:03;101952.17;;;2.47;100.00
56681;BME280;42558;52.388;13.390;2023-01-27T11:55:46;101955.23;;;2.43;100.00
56681;BME280;42558;52.388;13.390;2023-01-27T11:58:48;101955.51;;;2.39;100.00
56681;BME280;42558;52.388;13.390;2023-01-27T12:01:20;101956.02;;;2.45;100.00
56681;BME280;42558;52.388;13.390;2023-01-27T12:07:36;101951.49;;;2.39;100.00
56681;BME280;42558;52.388;13.390;2023-01-27T12:10:36;101954.36;;;2.46;100.00
56681;BME280;42558;52.388;13.390;2023-01-27T12:15:55;101955.10;;;2.63;100.00
56681;BME280;42558;52.388;13.390;2023-01-27T12:18:31;101952.71;;;2.64;100.00
56681;BME280;42558;52.388;13.390;2023-01-27T12:21:07;101955.64;;;2.63;100.00
56681;BME280;42558;52.388;13.390;2023-01-27T12:23:46;101952.62;;;2.59;100.00
56681;BME280;42558;52.388;13.390;2023-01-27T12:26:39;101952.39;;;2.56;100.00
56681;BME280;42558;52.388;13.390;2023-01-27T12:29:21;101953.25;;;2.56;100.00
56681;BME280;42558;52.388;13.390;2023-01-27T12:31:57;101952.17;;;2.63;100.00
56681;BME280;42558;52.388;13.390;2023-01-27T12:34:35;101949.48;;;2.65;100.00
56681;BME280;42558;52.388;13.390;2023-01-27T12:37:06;101952.23;;;2.54;100.00
56681;BME280;42558;52.388;13.390;2023-01-27T12:39:47;101947.02;;;2.46;100.00
56681;BME280;42558;52.388;13.390;2023-01-27T12:42:48;101945.75;;;2.44;100.00
56681;BME280;42558;52.388;13.390;2023-01-27T12:48:17;101948.72;;;2.50;100.00
56681;BME280;42558;52.388;13.390;2023-01-27T12:53:26;101946.98;;;2.53;100.00
56681;BME280;42558;52.388;13.390;2023-01-27T12:56:21;101953.77;;;2.56;100.00
56681;BME280;42558;52.388;13.390;2023-01-27T12:58:58;101951.13;;;2.58;100.00
56681;BME280;42558;52.388;13.390;2023-01-27T13:01:33;101954.38;;;2.57;100.00
56681;BME280;42558;52.388;13.390;2023-01-27T13:06:47;101953.64;;;2.45;100.00
56681;BME280;42558;52.388;13.390;2023-01-27T13:09:45;101956.70;;;2.48;100.00
56681;BME280;42558;52.388;13.390;2023-01-27T13:12:25;101957.88;;;2.39;100.00
56681;BME280;42558;52.388;13.390;2023-01-27T13:15:14;101959.29;;;2.36;100.00
56681;BME280;42558;52.388;13.390;2023-01-27T13:17:48;101959.86;;;2.40;100.00
56681;BME280;42558;52.388;13.390;2023-01-27T13:21:14;101961.24;;;2.40;100.00
56681;BME280;42558;52.388;13.390;2023-01-27T13:23:47;101961.89;;;2.36;100.00
56681;BME280;42558;52.388;13.390;2023-01-27T13:26:25;101962.09;;;2.37;100.00
56681;BME280;42558;52.388;13.390;2023-01-27T13:32:09;101960.48;;;2.34;100.00
56681;BME280;42558;52.388;13.390;2023-01-27T13:34:57;101964.71;;;2.29;100.00
56681;BME280;42558;52.388;13.390;2023-01-27T13:37:39;101963.64;;;2.32;100.00
56681;BME280;42558;52.388;13.390;2023-01-27T13:40:29;101964.11;;;2.31;100.00
56681;BME280;42558;52.388;13.390;2023-01-27T13:43:19;101966.73;;;2.31;100.00
56681;BME280;42558;52.388;13.390;2023-01-27T13:48:54;101968.63;;;2.10;100.00
56681;BME280;42558;52.388;13.390;2023-01-27T13:51:29;101974.31;;;2.12;100.00
56681;BME280;42558;52.388;13.390;2023-01-27T13:54:04;101975.97;;;2.09;100.00
56681;BME280;42558;52.388;13.390;2023-01-27T14:04:04;101982.51;;;1.98;100.00
56681;BME280;42558;52.388;13.390;2023-01-27T14:18:41;101999.98;;;1.94;100.00
56681;BME280;42558;52.388;13.390;2023-01-27T14:38:21;102003.11;;;2.05;100.00
56681;BME280;42558;52.388;13.390;2023-01-27T14:44:38;102003.89;;;2.08;100.00
56681;BME280;42558;52.388;13.390;2023-01-27T14:47:35;102006.14;;;2.11;100.00
56681;BME280;42558;52.388;13.390;2023-01-27T14:56:14;102016.23;;;1.99;100.00
56681;BME280;42558;52.388;13.390;2023-01-27T15:02:23;102016.63;;;2.00;100.00
56681;BME280;42558;52.388;13.390;2023-01-27T15:08:46;102022.37;;;1.97;100.00
56681;BME280;42558;52.388;13.390;2023-01-27T15:20:50;102026.34;;;1.97;100.00
56681;BME280;42558;52.388;13.390;2023-01-27T15:23:53;102026.57;;;1.98;100.00
56681;BME280;42558;52.388;13.390;2023-01-27T15:26:27;102028.73;;;1.94;100.00